createdAt,value
2019-04-29T00:05:00.215Z,31.57
2019-04-29T00:10:08.365Z,33.37
2019-04-29T00:15:15.757Z,33.77
2019-04-29T00:20:22.659Z,38.33
2019-04-29T00:25:27.819Z,33.57
2019-04-29T00:30:33.248Z,33.93
2019-04-29T00:35:38.704Z,34.20
2019-04-29T00:41:03.631Z,37.83
2019-04-29T00:46:09.647Z,33.70
2019-04-29T00:51:14.747Z,39.83
2019-04-29T00:56:19.783Z,39.07
2019-04-29T01:01:26.558Z,37.60
2019-04-29T01:06:31.767Z,39.33
2019-04-29T01:11:36.755Z,40.37
2019-04-29T01:16:41.987Z,43.23
2019-04-29T01:21:47.112Z,44.13
2019-04-29T01:26:54.942Z,41.23
2019-04-29T01:32:00.298Z,42.90
2019-04-29T01:37:05.403Z,50.37
2019-04-29T01:42:12.270Z,47.27
2019-04-29T01:47:17.395Z,46.60
2019-04-29T01:52:22.530Z,46.17
2019-04-29T01:57:27.856Z,48.43
2019-04-29T02:02:33.107Z,49.40
2019-04-29T02:07:38.208Z,49.87
2019-04-29T02:12:43.341Z,48.33
2019-04-29T02:17:48.239Z,54.63
2019-04-29T02:22:54.895Z,51.83
2019-04-29T02:28:00.207Z,50.33
2019-04-29T02:33:05.313Z,54.63
2019-04-29T02:38:12.002Z,54.63
2019-04-29T02:43:27.864Z,60.93
2019-04-29T02:48:34.606Z,56.47
2019-04-29T02:53:40.018Z,62.97
2019-04-29T02:58:55.761Z,63.50
2019-04-29T03:04:05.545Z,62.43
2019-04-29T03:09:10.702Z,66.77
2019-04-29T03:14:15.869Z,64.60
2019-04-29T03:19:22.505Z,69.67
2019-04-29T03:24:27.843Z,67.07
2019-04-29T03:29:33.006Z,69.53
2019-04-29T03:34:38.374Z,68.47
2019-04-29T03:39:43.730Z,60.87
2019-04-29T03:44:48.717Z,63.27
2019-04-29T03:49:53.905Z,62.13
2019-04-29T03:54:59.087Z,62.43
2019-04-29T04:00:10.358Z,60.13
2019-04-29T04:05:23.371Z,65.53
2019-04-29T04:10:28.944Z,54.23
2019-04-29T04:15:34.482Z,53.07
2019-04-29T04:20:39.814Z,62.00
2019-04-29T04:25:45.299Z,62.50
2019-04-29T04:30:50.878Z,59.93
2019-04-29T04:35:56.141Z,59.40
2019-04-29T04:41:02.959Z,65.53
2019-04-29T04:46:08.478Z,62.67
2019-04-29T04:51:14.078Z,57.17
2019-04-29T04:56:19.708Z,67.03
2019-04-29T05:01:25.077Z,70.83
2019-04-29T05:06:30.740Z,64.63
2019-04-29T05:11:36.295Z,63.20
2019-04-29T05:16:41.632Z,63.63
2019-04-29T05:21:47.002Z,70.43
2019-04-29T05:26:52.231Z,70.10
2019-04-29T05:31:57.212Z,62.30
2019-04-29T05:37:16.128Z,66.93
2019-04-29T05:42:21.287Z,59.03
2019-04-29T05:47:28.208Z,60.47
2019-04-29T05:52:39.534Z,56.63
2019-04-29T05:57:41.905Z,60.67
2019-04-29T06:02:47.116Z,52.60
2019-04-29T06:07:56.267Z,54.63
2019-04-29T06:12:58.926Z,50.37
2019-04-29T06:18:04.306Z,45.37
2019-04-29T06:23:09.656Z,50.93
2019-04-29T06:28:14.837Z,56.07
2019-04-29T06:33:24.078Z,49.23
2019-04-29T06:38:26.755Z,45.43
2019-04-29T06:43:32.145Z,41.17
2019-04-29T06:48:37.488Z,44.60
2019-04-29T06:53:42.838Z,43.77
2019-04-29T06:58:49.154Z,36.77
2019-04-29T07:03:55.691Z,32.40
2019-04-29T07:09:01.556Z,33.80
2019-04-29T07:14:06.908Z,36.40
2019-04-29T07:19:11.926Z,38.50
2019-04-29T07:24:20.163Z,26.97
2019-04-29T07:29:29.382Z,36.57
2019-04-29T07:34:33.809Z,28.37
2019-04-29T07:39:37.317Z,23.47
2019-04-29T07:44:44.506Z,26.10
2019-04-29T07:49:51.506Z,23.63
2019-04-29T07:54:57.106Z,30.50
2019-04-29T08:00:02.086Z,22.50
2019-04-29T08:05:10.389Z,29.80
2019-04-29T08:10:23.602Z,19.97
2019-04-29T08:15:22.696Z,25.50
2019-04-29T08:20:27.936Z,19.47
2019-04-29T08:25:33.028Z,20.77
2019-04-29T08:30:41.868Z,21.80
2019-04-29T08:35:46.705Z,20.30
2019-04-29T08:40:52.055Z,24.20
2019-04-29T08:46:07.546Z,19.23
2019-04-29T08:51:12.965Z,17.73
2019-04-29T08:56:18.475Z,21.73
2019-04-29T09:01:24.699Z,30.10
2019-04-29T09:06:32.602Z,29.00
2019-04-29T09:11:36.926Z,17.03
2019-04-29T09:16:42.305Z,17.83
2019-04-29T09:21:49.057Z,18.57
2019-04-29T09:26:58.985Z,16.10
2019-04-29T09:32:05.107Z,17.57
2019-04-29T09:37:10.465Z,18.03
2019-04-29T09:42:26.696Z,17.03
2019-04-29T09:47:32.667Z,17.20
2019-04-29T09:52:37.886Z,15.10
2019-04-29T09:57:43.565Z,17.80
2019-04-29T10:02:50.385Z,18.43
2019-04-29T10:07:55.709Z,17.57
2019-04-29T10:13:01.105Z,14.37
2019-04-29T10:18:10.914Z,16.47
2019-04-29T10:23:16.284Z,15.97
2019-04-29T10:28:21.567Z,18.73
2019-04-29T10:33:27.147Z,17.00
2019-04-29T10:38:32.410Z,22.07
2019-04-29T10:43:53.610Z,13.83
2019-04-29T10:49:03.614Z,14.17
2019-04-29T10:54:06.706Z,23.63
2019-04-29T10:59:11.975Z,21.83
2019-04-29T11:04:17.918Z,23.10
2019-04-29T11:09:31.195Z,22.27
2019-04-29T11:14:37.722Z,19.23
2019-04-29T11:19:43.846Z,17.87
2019-04-29T11:25:06.757Z,18.60
2019-04-29T11:30:14.326Z,19.33
2019-04-29T11:35:24.498Z,14.70
2019-04-29T11:40:42.580Z,19.37
2019-04-29T11:45:38.623Z,13.13
2019-04-29T11:50:45.196Z,17.13
2019-04-29T11:55:52.586Z,15.27
2019-04-29T12:01:03.961Z,16.37
2019-04-29T12:06:10.596Z,25.97
2019-04-29T12:11:16.569Z,15.83
2019-04-29T12:16:29.245Z,14.07
2019-04-29T12:21:36.156Z,17.37
2019-04-29T12:26:44.349Z,22.27
2019-04-29T12:31:58.231Z,19.13
2019-04-29T12:37:05.385Z,18.53
2019-04-29T12:42:28.330Z,17.93
2019-04-29T12:47:34.989Z,16.97
2019-04-29T12:52:40.447Z,26.73
2019-04-29T12:57:45.845Z,21.13
2019-04-29T13:02:59.849Z,19.63
2019-04-29T13:08:15.758Z,17.23
2019-04-29T13:13:22.016Z,17.17
2019-04-29T13:18:29.197Z,14.97
2019-04-29T13:23:39.345Z,17.60
2019-04-29T13:28:59.282Z,17.50
2019-04-29T13:33:51.074Z,15.10
2019-04-29T13:38:55.888Z,15.53
2019-04-29T13:44:07.024Z,16.13
2019-04-29T13:49:17.008Z,17.60
2019-04-29T13:54:22.285Z,20.90
2019-04-29T13:59:42.107Z,19.33
2019-04-29T14:04:49.450Z,15.23
2019-04-29T14:09:54.830Z,17.63
2019-04-29T14:15:00.239Z,21.70
2019-04-29T14:20:10.832Z,17.30
2019-04-29T14:25:14.707Z,13.73
2019-04-29T14:30:21.526Z,46.83
2019-04-29T14:35:47.628Z,14.17
2019-04-29T14:40:50.177Z,24.57
2019-04-29T14:45:56.809Z,20.07
2019-04-29T14:51:02.546Z,23.97
2019-04-29T14:56:07.577Z,20.07
2019-04-29T15:01:17.075Z,18.30
2019-04-29T15:06:22.091Z,23.17
2019-04-29T15:11:31.834Z,20.07
2019-04-29T15:16:40.707Z,16.70
2019-04-29T15:21:48.181Z,24.93
2019-04-29T15:26:53.698Z,20.23
2019-04-29T15:31:58.666Z,16.30
2019-04-29T15:37:04.074Z,22.27
2019-04-29T15:42:09.311Z,19.30
2019-04-29T15:47:14.912Z,14.67
2019-04-29T15:52:20.888Z,19.07
2019-04-29T15:57:27.256Z,18.67
2019-04-29T16:02:35.886Z,18.20
2019-04-29T16:07:46.306Z,21.80
2019-04-29T16:13:05.427Z,17.67
2019-04-29T16:18:14.420Z,19.23
2019-04-29T16:23:17.349Z,16.13
2019-04-29T16:28:31.596Z,16.10
2019-04-29T16:33:32.046Z,17.77
2019-04-29T16:38:37.025Z,16.67
2019-04-29T16:43:44.328Z,22.73
2019-04-29T16:48:49.416Z,19.80
2019-04-29T16:53:54.917Z,22.97
2019-04-29T16:59:08.886Z,28.40
2019-04-29T17:04:07.026Z,21.90
2019-04-29T17:09:22.472Z,24.17
2019-04-29T17:14:20.648Z,16.23
2019-04-29T17:19:26.032Z,15.37
2019-04-29T17:24:31.395Z,19.93
2019-04-29T17:34:58.682Z,23.07
2019-04-29T17:35:14.704Z,23.80
2019-04-29T17:39:56.199Z,24.03
2019-04-29T17:45:10.570Z,19.47
2019-04-29T17:50:30.149Z,10.97
2019-04-29T17:55:46.042Z,17.53
2019-04-29T18:01:08.802Z,13.23
2019-04-29T18:06:24.313Z,21.73
2019-04-29T18:11:26.285Z,16.40
2019-04-29T18:16:39.435Z,16.73
2019-04-29T18:21:56.871Z,16.67
2019-04-29T18:27:09.268Z,14.97
2019-04-29T18:32:15.538Z,10.47
2019-04-29T18:37:21.337Z,10.67
2019-04-29T18:42:27.769Z,10.80
2019-04-29T18:47:35.430Z,16.93
2019-04-29T18:52:40.408Z,9.93
2019-04-29T18:57:45.970Z,15.90
2019-04-29T19:02:57.225Z,12.53
2019-04-29T19:08:11.270Z,12.27
2019-04-29T19:13:12.719Z,16.07
2019-04-29T19:18:17.491Z,15.33
2019-04-29T19:23:22.352Z,13.23
2019-04-29T19:28:31.054Z,12.17
2019-04-29T19:33:35.655Z,18.70
2019-04-29T19:38:43.257Z,17.40
2019-04-29T19:43:54.846Z,25.13
2019-04-29T19:48:58.292Z,12.07
2019-04-29T19:54:01.722Z,13.13
2019-04-29T19:59:26.849Z,14.20
2019-04-29T20:04:40.185Z,13.77
2019-04-29T20:09:48.221Z,15.57
2019-04-29T20:14:58.671Z,15.27
2019-04-29T20:20:17.594Z,11.37
2019-04-29T20:25:31.030Z,15.50
2019-04-29T20:30:30.947Z,13.37
2019-04-29T20:35:40.278Z,18.30
2019-04-29T20:40:43.666Z,12.60
2019-04-29T20:45:49.496Z,28.03
2019-04-29T20:50:56.484Z,12.30
2019-04-29T20:56:10.409Z,15.83
2019-04-29T21:01:11.444Z,15.23
2019-04-29T21:06:17.088Z,14.83
2019-04-29T21:11:25.723Z,13.87
2019-04-29T21:16:32.809Z,19.57
2019-04-29T21:21:41.767Z,13.90
2019-04-29T21:26:46.044Z,12.83
2019-04-29T21:31:58.388Z,15.00
2019-04-29T21:37:01.608Z,16.97
2019-04-29T21:42:17.328Z,15.00
2019-04-29T21:47:25.055Z,13.37
2019-04-29T21:52:30.190Z,16.47
2019-04-29T21:57:35.379Z,20.40
2019-04-29T22:02:41.474Z,12.53
2019-04-29T22:07:47.574Z,13.83
2019-04-29T22:12:58.324Z,15.67
2019-04-29T22:18:01.667Z,15.13
2019-04-29T22:23:12.961Z,13.70
2019-04-29T22:28:15.981Z,17.17
2019-04-29T22:33:20.280Z,12.53
2019-04-29T22:38:25.470Z,14.57
2019-04-29T22:43:54.675Z,11.47
2019-04-29T22:49:01.264Z,12.40
2019-04-29T22:54:25.786Z,14.47
2019-04-29T22:59:30.722Z,13.50
2019-04-29T23:04:35.991Z,11.20
2019-04-29T23:09:41.646Z,9.83
2019-04-29T23:14:47.822Z,14.77
2019-04-29T23:19:55.131Z,13.27
2019-04-29T23:25:05.669Z,15.77
2019-04-29T23:30:13.571Z,14.40
2019-04-29T23:35:20.015Z,12.33
2019-04-29T23:40:25.589Z,15.30
2019-04-29T23:45:30.769Z,15.23
2019-04-29T23:50:36.111Z,12.30
2019-04-29T23:55:41.370Z,13.17
